createdAt,value
2022-10-23T00:01:40.088Z,63.61
2022-10-23T00:04:11.646Z,64.71
2022-10-23T00:06:40.184Z,63.90
2022-10-23T00:09:10.083Z,63.24
2022-10-23T00:11:38.687Z,62.63
2022-10-23T00:14:10.276Z,63.27
2022-10-23T00:16:39.075Z,63.44
2022-10-23T00:19:08.433Z,64.19
2022-10-23T00:21:37.078Z,62.79
2022-10-23T00:24:06.012Z,62.30
2022-10-23T00:26:34.462Z,62.18
2022-10-23T00:29:02.799Z,62.78
2022-10-23T00:31:33.349Z,62.49
2022-10-23T00:34:02.002Z,62.79
2022-10-23T00:36:30.413Z,63.33
2022-10-23T00:38:58.754Z,63.90
2022-10-23T00:41:29.356Z,62.88
2022-10-23T00:44:09.880Z,63.47
2022-10-23T00:46:40.833Z,64.23
2022-10-23T00:51:48.051Z,63.07
2022-10-23T00:54:26.594Z,64.03
2022-10-23T00:56:58.089Z,64.38
2022-10-23T00:59:27.339Z,64.20
2022-10-23T01:01:57.480Z,64.08
2022-10-23T01:04:29.542Z,63.67
2022-10-23T01:07:04.747Z,63.89
2022-10-23T01:09:38.448Z,64.38
2022-10-23T01:12:16.595Z,63.83
2022-10-23T01:14:55.063Z,64.23
2022-10-23T01:17:31.572Z,64.20
2022-10-23T01:20:12.566Z,63.98
2022-10-23T01:23:01.870Z,63.57
2022-10-23T01:25:47.631Z,63.17
2022-10-23T01:28:26.112Z,63.30
2022-10-23T01:30:58.411Z,63.08
2022-10-23T01:33:36.280Z,63.27
2022-10-23T01:36:08.661Z,64.08
2022-10-23T01:38:42.559Z,64.04
2022-10-23T01:41:29.789Z,63.18
2022-10-23T01:44:05.498Z,63.41
2022-10-23T01:46:37.659Z,63.87
2022-10-23T01:49:12.929Z,64.03
2022-10-23T01:51:46.379Z,63.69
2022-10-23T01:54:16.832Z,63.27
2022-10-23T01:56:48.568Z,63.33
2022-10-23T01:59:24.209Z,64.16
2022-10-23T02:01:55.626Z,64.35
2022-10-23T02:04:29.321Z,64.64
2022-10-23T02:06:58.158Z,65.29
2022-10-23T02:09:26.650Z,63.93
2022-10-23T02:12:04.264Z,64.80
2022-10-23T02:14:45.423Z,65.46
2022-10-23T02:17:21.432Z,64.98
2022-10-23T02:19:56.561Z,65.44
2022-10-23T02:22:30.746Z,66.29
2022-10-23T02:25:06.097Z,66.73
2022-10-23T02:27:40.460Z,66.27
2022-10-23T02:30:15.112Z,66.26
2022-10-23T02:32:49.668Z,65.80
2022-10-23T02:35:21.505Z,66.47
2022-10-23T02:37:56.113Z,67.12
2022-10-23T02:40:33.555Z,67.25
2022-10-23T02:43:05.149Z,67.77
2022-10-23T02:48:20.338Z,67.77
2022-10-23T02:50:56.837Z,68.39
2022-10-23T02:53:35.367Z,69.00
2022-10-23T02:56:10.698Z,68.78
2022-10-23T02:58:44.677Z,68.73
2022-10-23T03:01:18.642Z,68.53
2022-10-23T03:03:52.881Z,68.88
2022-10-23T03:06:21.747Z,69.31
2022-10-23T03:08:55.519Z,68.85
2022-10-23T03:11:27.173Z,68.38
2022-10-23T03:13:57.232Z,67.09
2022-10-23T03:16:27.559Z,67.17
2022-10-23T03:18:56.948Z,66.39
2022-10-23T03:21:25.923Z,66.23
2022-10-23T03:23:55.151Z,66.10
2022-10-23T03:26:31.767Z,67.01
2022-10-23T03:29:00.156Z,66.29
2022-10-23T03:31:30.012Z,67.76
2022-10-23T03:34:04.028Z,68.19
2022-10-23T03:36:34.749Z,68.45
2022-10-23T03:39:05.628Z,68.70
2022-10-23T03:41:34.156Z,69.04
2022-10-23T03:44:02.712Z,69.57
2022-10-23T03:46:32.639Z,70.15
2022-10-23T03:49:01.166Z,69.94
2022-10-23T03:51:29.665Z,70.17
2022-10-23T03:53:59.318Z,70.25
2022-10-23T03:56:28.217Z,69.99
2022-10-23T03:58:56.609Z,69.80
2022-10-23T04:01:27.916Z,70.13
2022-10-23T04:03:58.059Z,70.98
2022-10-23T04:06:27.757Z,70.92
2022-10-23T04:08:58.580Z,70.06
2022-10-23T04:11:27.203Z,70.91
2022-10-23T04:13:55.581Z,70.62
2022-10-23T04:16:25.320Z,71.43
2022-10-23T04:18:56.185Z,69.73
2022-10-23T04:21:26.401Z,69.44
2022-10-23T04:23:56.871Z,69.51
2022-10-23T04:26:25.432Z,68.96
2022-10-23T04:28:53.772Z,69.04
2022-10-23T04:31:22.259Z,69.46
2022-10-23T04:33:51.097Z,69.38
2022-10-23T04:36:34.365Z,69.07
2022-10-23T04:39:13.039Z,69.41
2022-10-23T04:41:41.651Z,68.64
2022-10-23T04:44:10.106Z,69.44
2022-10-23T04:46:40.297Z,69.87
2022-10-23T04:49:08.557Z,68.95
2022-10-23T04:51:53.054Z,68.76
2022-10-23T04:54:41.001Z,68.35
2022-10-23T04:57:32.837Z,68.17
2022-10-23T05:00:04.006Z,67.11
2022-10-23T05:02:40.452Z,67.29
2022-10-23T05:05:09.401Z,67.22
2022-10-23T05:07:55.857Z,67.03
2022-10-23T05:10:42.823Z,66.75
2022-10-23T05:13:18.088Z,65.61
2022-10-23T05:15:46.851Z,65.79
2022-10-23T05:18:21.870Z,66.06
2022-10-23T05:20:53.662Z,66.11
2022-10-23T05:23:27.375Z,65.62
2022-10-23T05:26:03.308Z,66.75
2022-10-23T05:28:58.954Z,67.29
2022-10-23T05:31:27.654Z,67.75
2022-10-23T05:34:03.641Z,65.84
2022-10-23T05:36:33.029Z,67.11
2022-10-23T05:39:03.881Z,67.10
2022-10-23T05:41:33.555Z,67.00
2022-10-23T05:44:03.070Z,65.01
2022-10-23T05:46:57.751Z,63.96
2022-10-23T05:49:44.869Z,63.90
2022-10-23T05:52:22.805Z,63.40
2022-10-23T05:55:19.008Z,64.38
2022-10-23T05:57:50.396Z,65.37
2022-10-23T06:00:25.501Z,65.55
2022-10-23T06:03:11.646Z,64.72
2022-10-23T06:05:50.850Z,64.15
2022-10-23T06:08:24.656Z,62.31
2022-10-23T06:10:56.365Z,63.36
2022-10-23T06:13:24.991Z,64.21
2022-10-23T06:15:53.482Z,64.24
2022-10-23T06:18:27.176Z,63.45
2022-10-23T06:21:02.451Z,62.56
2022-10-23T06:23:32.278Z,63.83
2022-10-23T06:26:40.635Z,64.80
2022-10-23T06:29:12.444Z,63.59
2022-10-23T06:31:45.714Z,63.03
2022-10-23T06:34:14.983Z,61.41
2022-10-23T06:36:43.823Z,61.21
2022-10-23T06:39:40.533Z,63.19
2022-10-23T06:42:19.790Z,62.93
2022-10-23T06:44:57.999Z,62.38
2022-10-23T06:47:56.085Z,59.95
2022-10-23T06:50:43.184Z,60.24
2022-10-23T06:53:19.224Z,61.78
2022-10-23T06:55:55.502Z,60.86
2022-10-23T06:58:26.358Z,59.82
2022-10-23T07:01:03.096Z,59.42
2022-10-23T07:03:32.117Z,60.89
2022-10-23T07:06:02.196Z,60.49
2022-10-23T07:08:30.928Z,61.93
2022-10-23T07:11:04.144Z,60.38
2022-10-23T07:13:35.273Z,59.36
2022-10-23T07:16:25.194Z,57.55
2022-10-23T07:18:59.540Z,58.26
2022-10-23T07:21:29.774Z,60.15
2022-10-23T07:24:09.202Z,60.27
2022-10-23T07:26:41.589Z,62.02
2022-10-23T07:29:11.851Z,61.26
2022-10-23T07:31:40.569Z,59.79
2022-10-23T07:34:29.076Z,59.95
2022-10-23T07:37:33.005Z,61.70
2022-10-23T07:40:04.103Z,59.96
2022-10-23T07:42:37.147Z,59.05
2022-10-23T07:45:08.849Z,60.41
2022-10-23T07:47:41.349Z,59.63
2022-10-23T07:50:11.193Z,62.17
2022-10-23T07:52:39.950Z,61.31
2022-10-23T07:55:13.424Z,59.01
2022-10-23T07:58:08.373Z,60.84
2022-10-23T08:00:43.569Z,59.87
2022-10-23T08:03:20.422Z,58.31
2022-10-23T08:05:49.576Z,57.64
2022-10-23T08:08:18.014Z,58.12
2022-10-23T08:10:50.335Z,57.12
2022-10-23T08:13:25.121Z,57.01
2022-10-23T08:16:02.469Z,55.53
2022-10-23T08:18:51.474Z,57.96
2022-10-23T08:21:21.335Z,56.25
2022-10-23T08:23:54.337Z,55.69
2022-10-23T08:26:23.264Z,55.48
2022-10-23T08:28:51.699Z,55.19
2022-10-23T08:31:23.501Z,56.14
2022-10-23T08:34:09.393Z,54.90
2022-10-23T08:36:39.485Z,54.88
2022-10-23T08:39:08.736Z,56.42
2022-10-23T08:41:43.107Z,58.39
2022-10-23T08:44:24.807Z,57.77
2022-10-23T08:47:04.445Z,59.81
2022-10-23T08:49:55.444Z,58.82
2022-10-23T08:52:31.120Z,58.67
2022-10-23T08:55:06.764Z,58.43
2022-10-23T08:57:43.910Z,59.09
2022-10-23T09:00:16.210Z,56.54
2022-10-23T09:02:49.921Z,55.24
2022-10-23T09:05:20.761Z,56.60
2022-10-23T09:08:10.149Z,58.45
2022-10-23T09:10:59.154Z,57.63
2022-10-23T09:13:50.070Z,56.26
2022-10-23T09:16:30.322Z,60.26
2022-10-23T09:19:00.747Z,57.23
2022-10-23T09:21:30.566Z,57.37
2022-10-23T09:23:58.973Z,58.20
2022-10-23T09:26:27.625Z,57.05
2022-10-23T09:29:10.395Z,57.02
2022-10-23T09:31:59.286Z,57.83
2022-10-23T09:34:33.091Z,57.79
2022-10-23T09:37:04.071Z,58.79
2022-10-23T09:39:35.089Z,58.47
2022-10-23T09:42:22.696Z,57.29
2022-10-23T09:44:54.031Z,59.91
2022-10-23T09:47:45.745Z,58.56
2022-10-23T09:50:23.496Z,58.40
2022-10-23T09:52:56.023Z,59.20
2022-10-23T09:55:26.658Z,57.62
2022-10-23T09:58:01.707Z,57.76
2022-10-23T10:00:34.245Z,57.59
2022-10-23T10:03:05.001Z,58.19
2022-10-23T10:05:39.937Z,59.12
2022-10-23T10:08:22.708Z,58.37
2022-10-23T10:10:54.005Z,57.83
2022-10-23T10:13:37.779Z,58.12
2022-10-23T10:16:12.874Z,58.39
2022-10-23T10:18:44.721Z,58.13
2022-10-23T10:21:22.509Z,58.61
2022-10-23T10:24:05.655Z,58.66
2022-10-23T10:26:43.664Z,58.18
2022-10-23T10:29:30.530Z,60.40
2022-10-23T10:32:13.450Z,62.26
2022-10-23T10:34:53.721Z,61.34
2022-10-23T10:37:45.961Z,59.67
2022-10-23T10:40:25.943Z,60.63
2022-10-23T10:43:25.145Z,60.52
2022-10-23T10:46:33.377Z,59.05
2022-10-23T10:49:10.921Z,60.64
2022-10-23T10:51:49.183Z,60.34
2022-10-23T10:54:39.391Z,62.79
2022-10-23T11:00:38.584Z,62.66
2022-10-23T11:03:25.715Z,60.83
2022-10-23T11:05:57.507Z,60.50
2022-10-23T11:08:56.318Z,60.04
2022-10-23T11:11:40.867Z,60.47
2022-10-23T11:14:17.079Z,61.41
2022-10-23T11:16:49.848Z,61.02
2022-10-23T11:19:27.242Z,62.31
2022-10-23T11:22:01.037Z,61.75
2022-10-23T11:25:08.738Z,61.22
2022-10-23T11:27:55.470Z,61.97
2022-10-23T11:30:31.432Z,62.79
2022-10-23T11:33:32.587Z,62.12
2022-10-23T11:36:17.450Z,62.49
2022-10-23T11:38:52.733Z,63.10
2022-10-23T11:41:26.677Z,63.67
2022-10-23T11:44:03.698Z,63.71
2022-10-23T11:46:35.676Z,61.24
2022-10-23T11:49:07.259Z,60.12
2022-10-23T11:51:40.740Z,60.69
2022-10-23T11:54:24.934Z,62.98
2022-10-23T11:56:58.031Z,62.58
2022-10-23T11:59:32.014Z,61.95
2022-10-23T12:02:04.397Z,63.49
2022-10-23T12:04:41.249Z,63.06
2022-10-23T12:07:25.528Z,62.92
2022-10-23T12:09:59.143Z,60.90
2022-10-23T12:12:34.236Z,62.47
2022-10-23T12:15:22.891Z,62.89
2022-10-23T12:17:56.717Z,61.10
2022-10-23T12:20:42.180Z,62.99
2022-10-23T12:23:34.134Z,65.20
2022-10-23T12:26:21.029Z,64.45
2022-10-23T12:29:01.043Z,63.24
2022-10-23T12:31:47.971Z,62.22
2022-10-23T12:34:34.085Z,62.56
2022-10-23T12:37:28.457Z,62.48
2022-10-23T12:39:59.119Z,62.90
2022-10-23T12:42:29.745Z,63.40
2022-10-23T12:45:03.137Z,63.32
2022-10-23T12:50:19.340Z,64.30
2022-10-23T12:52:55.547Z,64.57
2022-10-23T12:55:25.943Z,63.17
2022-10-23T12:57:55.206Z,62.53
2022-10-23T13:00:26.331Z,62.94
2022-10-23T13:03:04.330Z,64.96
2022-10-23T13:05:34.035Z,65.30
2022-10-23T13:08:03.907Z,64.79
2022-10-23T13:10:47.342Z,63.75
2022-10-23T13:13:23.833Z,64.15
2022-10-23T13:15:52.334Z,63.24
2022-10-23T13:18:47.266Z,64.81
2022-10-23T13:21:22.021Z,64.28
2022-10-23T13:23:51.423Z,65.53
2022-10-23T13:26:27.321Z,64.91
2022-10-23T13:28:56.268Z,65.74
2022-10-23T13:31:26.609Z,64.45
2022-10-23T13:34:16.562Z,64.55
2022-10-23T13:36:53.894Z,66.28
2022-10-23T13:39:26.141Z,65.59
2022-10-23T13:42:01.410Z,65.51
2022-10-23T13:44:32.822Z,65.49
2022-10-23T13:47:01.380Z,64.58
2022-10-23T13:49:31.404Z,65.89
2022-10-23T13:52:00.170Z,64.82
2022-10-23T13:54:30.589Z,65.22
2022-10-23T13:56:59.716Z,65.73
2022-10-23T13:59:31.017Z,64.54
2022-10-23T14:02:00.911Z,64.52
2022-10-23T14:04:34.260Z,67.18
2022-10-23T14:07:05.911Z,67.83
2022-10-23T14:09:39.480Z,67.23
2022-10-23T14:12:08.709Z,66.75
2022-10-23T14:14:37.614Z,67.05
2022-10-23T14:17:06.344Z,66.63
2022-10-23T14:22:11.595Z,66.47
2022-10-23T14:24:41.964Z,67.81
2022-10-23T14:27:16.495Z,65.50
2022-10-23T14:29:45.291Z,65.08
2022-10-23T14:32:16.508Z,65.26
2022-10-23T14:34:55.680Z,64.88
2022-10-23T14:37:26.483Z,64.98
2022-10-23T14:39:55.337Z,65.86
2022-10-23T14:42:24.132Z,68.13
2022-10-23T14:44:55.773Z,67.43
2022-10-23T14:47:28.145Z,65.77
2022-10-23T14:49:59.103Z,64.83
2022-10-23T14:52:38.564Z,64.60
2022-10-23T14:55:08.332Z,64.20
2022-10-23T14:57:37.898Z,64.63
2022-10-23T15:00:07.566Z,66.68
2022-10-23T15:02:36.251Z,66.61
2022-10-23T15:05:07.328Z,67.26
2022-10-23T15:07:40.671Z,68.33
2022-10-23T15:10:10.785Z,67.32
2022-10-23T15:12:40.855Z,66.84
2022-10-23T15:15:17.223Z,68.21
2022-10-23T15:17:45.702Z,68.58
2022-10-23T15:20:15.758Z,69.43
2022-10-23T15:22:44.489Z,68.73
2022-10-23T15:25:17.015Z,68.22
2022-10-23T15:27:46.676Z,67.66
2022-10-23T15:30:16.063Z,68.23
2022-10-23T15:32:44.656Z,66.36
2022-10-23T15:35:13.257Z,67.16
2022-10-23T15:37:43.400Z,69.36
2022-10-23T15:40:12.911Z,68.58
2022-10-23T15:42:41.693Z,66.86
2022-10-23T15:45:14.091Z,66.20
2022-10-23T15:47:43.010Z,66.51
2022-10-23T15:50:11.692Z,66.91
2022-10-23T15:52:40.115Z,67.56
2022-10-23T15:55:11.891Z,67.00
2022-10-23T15:57:42.814Z,67.83
2022-10-23T16:00:13.982Z,66.17
2022-10-23T16:02:44.702Z,66.81
2022-10-23T16:05:14.754Z,66.95
2022-10-23T16:07:45.609Z,68.68
2022-10-23T16:10:15.789Z,68.90
2022-10-23T16:12:47.876Z,67.75
2022-10-23T16:15:16.865Z,67.07
2022-10-23T16:17:45.325Z,68.71
2022-10-23T16:20:13.836Z,69.72
2022-10-23T16:22:44.903Z,70.30
2022-10-23T16:25:17.668Z,68.26
2022-10-23T16:27:47.363Z,70.38
2022-10-23T16:30:16.746Z,70.28
2022-10-23T16:32:45.373Z,71.34
2022-10-23T16:35:14.082Z,70.76
2022-10-23T16:37:59.502Z,70.98
2022-10-23T16:40:29.746Z,70.78
2022-10-23T16:43:17.277Z,70.20
2022-10-23T16:46:03.538Z,71.45
2022-10-23T16:48:32.803Z,71.29
2022-10-23T16:51:01.663Z,69.93
2022-10-23T16:53:31.042Z,70.25
2022-10-23T16:56:01.486Z,69.63
2022-10-23T16:58:30.697Z,70.84
2022-10-23T17:01:01.956Z,71.36
2022-10-23T17:03:31.635Z,71.35
2022-10-23T17:06:06.071Z,71.97
2022-10-23T17:08:38.157Z,72.50
2022-10-23T17:11:10.630Z,70.15
2022-10-23T17:13:42.609Z,70.53
2022-10-23T17:16:14.807Z,70.23
2022-10-23T17:18:45.409Z,70.78
2022-10-23T17:21:15.544Z,69.80
2022-10-23T17:23:45.333Z,70.17
2022-10-23T17:26:18.834Z,71.04
2022-10-23T17:28:48.680Z,70.41
2022-10-23T17:31:22.794Z,70.33
2022-10-23T17:33:55.115Z,70.76
2022-10-23T17:36:24.773Z,70.49
2022-10-23T17:38:54.510Z,70.55
2022-10-23T17:41:28.195Z,69.36
2022-10-23T17:43:58.703Z,70.90
2022-10-23T17:46:30.926Z,71.73
2022-10-23T17:51:34.517Z,71.02
2022-10-23T17:54:05.928Z,71.42
2022-10-23T17:56:40.402Z,70.88
2022-10-23T17:59:11.800Z,70.37
2022-10-23T18:01:43.886Z,70.74
2022-10-23T18:04:15.068Z,70.34
2022-10-23T18:06:46.946Z,72.21
2022-10-23T18:09:17.028Z,71.74
2022-10-23T18:11:48.797Z,71.21
2022-10-23T18:14:19.295Z,71.25
2022-10-23T18:16:49.026Z,70.94
2022-10-23T18:19:19.586Z,71.62
2022-10-23T18:22:09.344Z,71.42
2022-10-23T18:24:38.714Z,70.99
2022-10-23T18:27:09.145Z,70.51
2022-10-23T18:29:38.316Z,70.64
2022-10-23T18:32:07.663Z,70.68
2022-10-23T18:34:36.467Z,70.46
2022-10-23T18:37:05.374Z,71.87
2022-10-23T18:39:33.942Z,70.86
2022-10-23T18:42:02.756Z,71.04
2022-10-23T18:44:32.924Z,71.02
2022-10-23T18:47:02.174Z,71.79
2022-10-23T18:49:31.055Z,71.14
2022-10-23T18:51:59.642Z,69.60
2022-10-23T18:54:28.591Z,69.30
2022-10-23T18:56:57.035Z,69.32
2022-10-23T18:59:25.786Z,69.20
2022-10-23T19:01:55.994Z,69.14
2022-10-23T19:04:25.863Z,69.68
2022-10-23T19:06:54.361Z,69.58
2022-10-23T19:09:23.175Z,70.01
2022-10-23T19:11:51.740Z,69.56
2022-10-23T19:14:20.365Z,69.96
2022-10-23T19:17:00.619Z,70.07
2022-10-23T19:19:33.103Z,70.74
2022-10-23T19:22:03.844Z,70.56
2022-10-23T19:24:37.983Z,70.67
2022-10-23T19:27:07.860Z,70.46
2022-10-23T19:29:41.248Z,70.13
2022-10-23T19:32:11.296Z,69.65
2022-10-23T19:34:40.167Z,69.64
2022-10-23T19:37:09.029Z,69.60
2022-10-23T19:39:37.641Z,68.74
2022-10-23T19:42:06.088Z,68.97
2022-10-23T19:44:34.436Z,68.94
2022-10-23T19:47:03.535Z,69.15
2022-10-23T19:49:33.274Z,69.90
2022-10-23T19:52:01.791Z,69.37
2022-10-23T19:54:30.207Z,69.81
2022-10-23T19:56:58.662Z,69.20
2022-10-23T19:59:27.087Z,69.48
2022-10-23T20:01:55.779Z,69.59
2022-10-23T20:04:24.288Z,69.69
2022-10-23T20:06:54.046Z,69.81
2022-10-23T20:09:22.725Z,68.96
2022-10-23T20:11:51.193Z,68.65
2022-10-23T20:14:20.328Z,67.94
2022-10-23T20:16:52.214Z,68.72
2022-10-23T20:19:24.065Z,68.77
2022-10-23T20:21:53.865Z,68.55
2022-10-23T20:24:22.960Z,69.53
2022-10-23T20:26:53.919Z,69.01
2022-10-23T20:29:23.236Z,68.41
2022-10-23T20:31:51.800Z,69.33
2022-10-23T20:34:20.448Z,69.53
2022-10-23T20:36:50.563Z,69.61
2022-10-23T20:39:25.574Z,69.77
2022-10-23T20:41:55.796Z,69.91
2022-10-23T20:44:24.908Z,69.37
2022-10-23T20:46:53.728Z,69.46
2022-10-23T20:49:22.318Z,69.03
2022-10-23T20:51:55.094Z,69.13
2022-10-23T20:54:27.650Z,69.09
2022-10-23T20:56:57.130Z,69.05
2022-10-23T20:59:25.737Z,68.84
2022-10-23T21:01:56.541Z,68.75
2022-10-23T21:04:27.677Z,67.73
2022-10-23T21:07:09.459Z,67.66
2022-10-23T21:09:40.620Z,67.79
2022-10-23T21:12:09.393Z,69.29
2022-10-23T21:14:38.014Z,67.83
2022-10-23T21:17:08.581Z,66.85
2022-10-23T21:19:37.180Z,66.17
2022-10-23T21:22:05.590Z,66.78
2022-10-23T21:24:33.993Z,68.94
2022-10-23T21:27:03.912Z,69.49
2022-10-23T21:29:32.364Z,69.67
2022-10-23T21:32:02.332Z,68.81
2022-10-23T21:34:31.249Z,66.97
2022-10-23T21:37:12.567Z,66.30
2022-10-23T21:39:42.248Z,65.94
2022-10-23T21:42:12.143Z,66.88
2022-10-23T21:44:40.653Z,69.70
2022-10-23T21:47:09.165Z,70.74
2022-10-23T21:49:37.604Z,69.99
2022-10-23T21:52:06.045Z,70.34
2022-10-23T21:54:34.506Z,69.73
2022-10-23T21:57:03.583Z,69.37
2022-10-23T21:59:36.080Z,70.37
2022-10-23T22:02:05.695Z,70.47
2022-10-23T22:04:34.180Z,70.79
2022-10-23T22:07:03.171Z,70.27
2022-10-23T22:09:32.645Z,70.44
2022-10-23T22:12:01.712Z,68.91
2022-10-23T22:14:30.113Z,69.31
2022-10-23T22:16:59.956Z,69.81
2022-10-23T22:19:28.440Z,69.45
2022-10-23T22:21:57.041Z,69.49
2022-10-23T22:24:25.523Z,68.62
2022-10-23T22:26:56.053Z,69.40
2022-10-23T22:29:26.805Z,69.67
2022-10-23T22:31:55.583Z,69.49
2022-10-23T22:34:48.400Z,70.88
2022-10-23T22:37:15.644Z,70.12
2022-10-23T22:39:44.511Z,69.65
2022-10-23T22:42:12.615Z,69.42
2022-10-23T22:44:41.071Z,69.56
2022-10-23T22:47:09.645Z,69.45
2022-10-23T22:49:39.581Z,69.53
2022-10-23T22:52:08.044Z,70.25
2022-10-23T22:54:36.437Z,69.32
2022-10-23T22:57:04.991Z,70.17
2022-10-23T22:59:33.411Z,68.96
2022-10-23T23:02:01.825Z,69.05
2022-10-23T23:04:37.683Z,68.65
2022-10-23T23:07:09.136Z,70.19
2022-10-23T23:09:39.133Z,69.78
2022-10-23T23:12:08.693Z,69.26
2022-10-23T23:14:37.445Z,69.47
2022-10-23T23:17:06.233Z,70.11
2022-10-23T23:19:34.805Z,69.28
2022-10-23T23:22:04.107Z,68.59
2022-10-23T23:24:34.387Z,71.40
2022-10-23T23:27:02.876Z,70.79
2022-10-23T23:29:31.307Z,69.81
2022-10-23T23:31:59.698Z,69.75
2022-10-23T23:34:28.224Z,69.21
2022-10-23T23:36:56.626Z,68.39
2022-10-23T23:39:26.209Z,69.52
2022-10-23T23:41:56.077Z,68.31
2022-10-23T23:44:24.461Z,68.71
2022-10-23T23:46:52.831Z,68.26
2022-10-23T23:49:21.215Z,69.17
2022-10-23T23:51:49.646Z,69.94
2022-10-23T23:54:18.285Z,70.12
2022-10-23T23:56:46.604Z,70.87
2022-10-23T23:59:16.378Z,70.45
